Los Angeles, CA (90042)

3:29 AM PST on February 11, 2016 (GMT -0800)
Mount Washington East | | Change Station
CLOSE
Current Station
Personal Weather Station
Location: Los Angeles, CA
Elevation: 719 ft
Nearby Weather Stations

Elev 719 ft 34.11 °N, 118.21 °W | Updated 9 seconds ago

Clear
Clear
65.3 °F
Feels Like 65.3 °F
N
5.1
Wind Variable Wind from NW
Gusts 7.4 mph

Today
High -- | Low -- °F
--% Chance of Precip.
Yesterday
High -- | Low -- °F
Precip. -- in
Pressure 30.06 in
Visibility 10.0 miles
Clouds Clear
Dew Point 28 °F
Humidity 24%
Rainfall 0.00 in
Snow Depth Not available.
6:41 AM 5:32 PM
Waxing Crescent, 11% visible
METAR KCQT 111047Z AUTO 01003KT 10SM CLR 17/01 A3007 RMK AO2 SLP180 T01720011 $
Pressure 30.06 in
Visibility 10.0 miles
Clouds Clear
Dew Point 28 °F
Humidity 24%
Rainfall 0.00 in
Snow Depth Not available.
6:41 AM 5:32 PM
Waxing Crescent, 11% visible
METAR KCQT 111047Z AUTO 01003KT 10SM CLR 17/01 A3007 RMK AO2 SLP180 T01720011 $

10-Day Weather Forecast

Almanac

Astronomy

Feb. 11, 2016 Rise Set
Actual Time
Civil Twilight
Nautical Twilight
Astronomical Twilight
Moon
Length of Visible Light
Length of Day
Tomorrow will be .
, % of the Moon is Illuminated

Today's Extremes

State Highs State Lows

Community

WunderPhotos

Upload Photos

1,892,030 photos uploaded!

WunderBlog® & News

Nearby

Air Quality

  Air Quality AQ Index Pollutant
Not available.

Snow Depth

Station Depth Elevation

Earthquake Activity

City Distance Mag. Time & Date
Minimum magnitude displayed is 2.5.

Coastal Water Temperatures

Place Temperature

Stations

Nearby Weather Stations

Station Location Temp. Windchill Dew Point Humidity Wind Precip. Elev Updated Type
                   

Watches & Warnings

There are currently no watches in effect.